Weather observations for the past three days for
Wendover Airport
Metric (Imperial)
Date Time (mdt) Wind (kph) Vis. (km) Weather Sky Cond. Temperature (ºC) Relative Humidity Wind Chill (°C) Heat Index (°C) Pressure Precipitation (cm)
Air Dwpt 6 hour altimeter (cm) sea level (mb) 1 hr 3 hr 6 hr
Max. Min.
09 05:56 NW 9 16.09 Fair CLR 13.9 -4.4 22.2 13.9 28% 76.5 1016.5
09 04:56 NW 7 16.09 Fair CLR 15.6 -5 24% 76.45 1015.5
09 03:56 NW 20 16.09 Fair CLR 15.6 -5 24% 76.4 1015.1
09 02:56 NW 22 G 37 16.09 Fair CLR 18.9 -6.1 18% 76.35 1014.1
09 01:56 N 22 G 35 16.09 Fair CLR 20 -4.4 19% 76.33 1013.7
09 00:56 E 6 16.09 Fair CLR 21.1 -3.9 18% 76.28 1013.2
08 23:56 NW 24 G 37 16.09 Fair CLR 22.2 -4.4 29.4 22.2 17% 76.23 1012.5
08 22:56 NW 19 16.09 Fair CLR 22.8 -3.9 17% 76.2 1012.2
08 21:56 N 19 16.09 Fair CLR 23.9 -3.9 15% 24 76.17 1011.9
08 20:56 N 22 16.09 Fair CLR 25 -3.9 14% 25 76.1 1010.9
08 19:56 NW 22 16.09 Fair CLR 26.7 -3.9 13% 26 76.05 1010.6
08 18:56 NW 26 G 35 16.09 Fair CLR 27.2 -4.4 12% 26 76.02 1010.6
08 17:56 W 22 G 35 16.09 Fair CLR 28.9 -4.4 29.4 24.4 11% 27 76.05 1010.6
08 16:56 W 19 G 43 16.09 Fair CLR 29.4 -4.4 11% 28 76.07 1010.8
08 15:56 NW 20 G 30 16.09 Fair CLR 28.9 -4.4 11% 27 76.12 1011.3
08 14:56 NW 13 G 39 16.09 Fair CLR 27.8 -3.9 12% 26 76.17 1012.1
08 13:56 NW 9 16.09 Fair CLR 26.7 -3.9 13% 26 76.25 1012.8
08 12:56 Vrbl 11 16.09 Fair CLR 25.6 -2.8 15% 25 76.3 1013.7
08 11:56 SE 20 16.09 Fair CLR 24.4 -2.2 24.4 10 17% 24 76.35 1014.2
08 10:56 SE 17 16.09 Fair CLR 22.8 -2.2 19% 76.38 1014.6
08 09:56 SE 13 16.09 Fair CLR 20 -0.6 25% 76.38 1015.1
08 08:56 E 17 16.09 Fair CLR 18.9 -2.2 24% 76.35 1014.6
08 07:56 Calm 16.09 Fair CLR 14.4 -2.2 32% 76.35 1014.7
08 06:56 Calm 16.09 Fair CLR 11.7 -2.8 37% 76.3 1014.3
08 05:56 SW 7 16.09 Fair CLR 11.1 -2.8 20 10.6 38% 76.28 1014.0
08 04:56 Calm 16.09 Fair CLR 11.7 -3.9 34% 76.25 1013.6
08 03:56 S 13 16.09 Fair CLR 13.9 -4.4 28% 76.23 1013.0
08 02:56 NE 7 16.09 Fair CLR 16.7 -5 22% 76.2 1012.4
08 01:56 N 13 16.09 Fair CLR 17.2 -5 22% 76.2 1012.6
08 00:56 Vrbl 6 16.09 Fair CLR 18.9 -5.6 19% 76.2 1012.4
07 23:56 Vrbl 6 16.09 Fair CLR 19.4 -3.9 27.8 18.9 20% 76.17 1012.3
07 22:56 NW 9 16.09 Fair CLR 21.1 -2.8 20% 76.12 1012.0
07 21:56 NW 13 16.09 Fair CLR 21.7 -3.3 19% 76.12 1011.9
07 20:56 NW 22 16.09 Fair CLR 23.9 -3.9 15% 24 76.05 1011.2
07 19:56 NW 26 16.09 Fair CLR 26.1 -3.9 14% 25 76.02 1010.5
07 18:56 W 19 16.09 A Few Clouds FEW110 27.2 -0.6 16% 26 76 1010.3
07 17:56 NW 19 G 28 16.09 Partly Cloudy SCT110 26.7 -1.1 27.8 20 16% 26 76.02 1010.6
07 16:56 W 22 16.09 Fair CLR 27.2 0 17% 26 76.05 1011.0
07 15:56 W 19 G 33 16.09 Partly Cloudy SCT110 27.2 -0.6 16% 26 76.1 1011.5
07 14:56 SE 13 16.09 Partly Cloudy SCT110 26.1 -0.6 17% 25 76.15 1012.3
07 13:56 Vrbl 7 16.09 Fair CLR 25 -0.6 18% 25 76.23 1013.6
07 12:56 E 13 16.09 Fair CLR 23.3 -0.6 20% 76.3 1014.7
07 11:56 E 9 16.09 Fair CLR 20 -0.6 20 8.9 25% 76.35 1015.8
07 10:56 E 15 16.09 Fair CLR 17.8 0 30% 76.38 1016.1
07 09:56 NE 11 16.09 Fair CLR 16.1 -1.1 31% 76.4 1016.2
07 08:56 Calm 16.09 Fair CLR 12.8 -1.7 37% 76.4 1016.7
07 07:56 NE 7 16.09 Fair CLR 11.7 -1.7 40% 76.38 1016.3
07 06:56 N 6 16.09 Fair CLR 10 -0.6 48% 76.35 1015.9
07 05:56 NE 9 16.09 Partly Cloudy SCT110 10.6 -1.1 13.3 7.8 45% 76.35 1015.6
07 04:56 NE 11 16.09 Fair CLR 8.9 -1.1 50% 7 76.38 1016.4
07 03:56 N 7 16.09 Fair CLR 11.1 -1.7 41% 76.38 1016.1
07 02:56 NE 7 16.09 Fair CLR 12.2 -2.8 35% 76.4 1016.7
07 01:56 NW 6 16.09 Fair CLR 11.7 -3.9 34% 76.45 1017.3
07 00:56 NE 17 16.09 Fair CLR 12.2 -4.4 31% 76.5 1018.1
06 23:56 NE 13 14.48 Fair CLR 13.3 -5 22.8 12.8 28% 76.5 1018.2
06 22:56 Calm 16.09 Fair CLR 15.6 -5 24% 76.5 1017.9
06 21:56 W 7 16.09 Fair CLR 16.7 -5 22% 76.5 1018.1
06 20:56 SE 17 16.09 Fair CLR 18.3 -5 20% 76.43 1017.1
06 19:56 SE 22 16.09 Fair CLR 20.6 -4.4 18% 76.4 1016.5
06 18:56 SE 22 16.09 Fair CLR 22.2 -2.8 19% 76.38 1016.1
06 17:56 SE 15 G 28 16.09 Fair CLR 22.8 -2.8 22.8 16.7 18% 76.35 1015.8
06 16:56 S 13 16.09 Fair CLR 22.2 -2.2 19% 76.4 1016.4
06 15:56 S 17 G 26 16.09 Fair CLR 21.7 -3.3 19% 76.48 1017.4
06 14:56 S 17 16.09 Fair CLR 20 -3.9 20% 76.53 1018.4
06 13:56 SE 20 16.09 Fair CLR 19.4 -3.3 21% 76.56 1019.0
06 12:56 SE 19 G 28 16.09 Fair CLR 17.8 -4.4 22% 76.61 1019.5
06 11:56 SE 22 G 28 0.00 Fair CLR 16.1 -7.2 16.7 10 20% 76.61 1019.7
06 10:56 Calm 16.09 Fair CLR 15 -7.2 21% 76.58 1019.2
06 09:56 W 6 16.09 Fair CLR 13.3 -7.2 24% 76.58 1019.6
06 08:56 Calm 16.09 Fair CLR 12.8 -7.2 24% 76.56 1019.2
06 07:56 Calm 16.09 Fair CLR 11.7 -5 31% 76.53 1018.7
06 06:56 N 9 16.09 Mostly Cloudy BKN075 10 -5.6 33% 9 76.48 1018.3
Date Time (mdt) Wind (kph) Vis. (km) Weather Sky Cond. Air Dwpt Max. Min. Relative Humidity Wind Chill (°C) Heat Index (°C) altimeter (cm) sea level (mb) 1 hr 3 hr 6 hr
6 hour
Temperature (ºC) Pressure Precipitation (cm)